MAPA DE AEROPUERTO

INFORMACIÓN METAR y TAF

METAR FOR LECO
ADDS - METARS form results

(1004 UTC 02 June 2020)
Data provider http://aviationweather.gov/metar/data/
 
METAR text: LECO 021000Z AUTO 03003KT 340V060 CAVOK 22/18 Q1015
Conditions at: LECO (LA CORUNA/ALVEDR, ES) observed 1000 UTC 02 June 2020
Temperature: 22.0°C (72°F)
Dewpoint: 18.0°C (64°F) [RH = 78%]
Pressure (altimeter): 29.97 inches Hg (1015.0 mb)
Winds: from the NNE (30 degrees) at 3 MPH (3 knots; 1.5 m/s)
Visibility: 6 or more miles (10+ km)
Ceiling: ceiling and visibility are OK
Clouds: unknown
Weather: no significant weather observed at this time

METAR text: LECO 020930Z AUTO VRB01KT 9999 VCTS ///CB 21/19 Q1014
Conditions at: LECO (LA CORUNA/ALVEDR, ES) observed 0930 UTC 02 June 2020
Temperature: 21.0°C (70°F)
Dewpoint: 19.0°C (66°F) [RH = 88%]
Pressure (altimeter): 29.94 inches Hg (1014.0 mb)
Winds: variable direction winds at 1 MPH (1 knots; 0.5 m/s)
Visibility: 6 or more miles (10+ km)
Ceiling: unknown
Clouds: missing
Weather: VCTS  (thunderstorm in vicinity)

Forecast for: LECO (LA CORUNA/ALVEDR, ES)
Text: TAF LECO 020800Z 0209/0309 VRB04KT 9999 FEW020 TX26/0213Z TN13/0305Z
Forecast period: 0900 UTC 02 June 2020 to 0900 UTC 03 June 2020
Forecast type: FROM: standard forecast or significant change
Winds: variable direction winds at 5 MPH (4 knots; 2.1 m/s)
Visibility: 6 or more miles 10+ km)
Ceiling: at least 12,000 feet AGL
Clouds: few clouds at 2000 feet AGL
Weather: no significant weather forecast for this period
Text: PROB40
Forecast period: 1400 to 1800 UTC 02 June 2020
Forecast type: TEMPORARY: The following changes expected for less than half the time period
Winds: from the N (350 degrees) at 12 MPH (10 knots; 5.1 m/s)
Visibility: missing
Ceiling: unknown
Clouds: missing
Weather: no significant weather forecast for this period
Text: TEMPO 0214/0218 35010KT
Forecast period: 1500 to 2100 UTC 02 June 2020
Forecast type: TEMPORARY: The following changes expected for less than half the time period
Visibility: missing
Ceiling: at least 12,000 feet AGL
Clouds: scattered clouds at 3000 feet AGL
Weather: SHRA TS  (rain showers, thunderstorm)
Text: PROB30
Forecast period: 2200 UTC 02 June 2020 to 0900 UTC 03 June 2020
Forecast type: TEMPORARY: The following changes expected for less than half the time period
Visibility: 1.86 miles (2.99 km)
Ceiling: unknown
Clouds: missing
Weather: BR  (mist)
Text: TEMPO 0215/0221 SHRA TS SCT030CB
Forecast period: 0400 to 0900 UTC 03 June 2020
Forecast type: TEMPORARY: The following changes expected for less than half the time period
Visibility: 0.22 miles (0.35 km)
Ceiling: indefinite ceiling with vertical visibility of 100 feet AGL
Clouds: obscured sky
Weather: FG  (fog)